createdAt,value
2023-05-19T00:00:32.321Z,76
2023-05-19T00:01:32.150Z,76
2023-05-19T00:02:32.233Z,76
2023-05-19T00:03:32.244Z,76
2023-05-19T00:04:32.212Z,76
2023-05-19T00:05:32.200Z,76
2023-05-19T00:06:32.194Z,76
2023-05-19T00:07:32.180Z,76
2023-05-19T00:08:32.209Z,76
2023-05-19T00:09:32.158Z,76
2023-05-19T00:10:32.443Z,76
2023-05-19T00:11:32.172Z,76
2023-05-19T00:12:32.223Z,76
2023-05-19T00:13:32.147Z,76
2023-05-19T00:14:32.187Z,76
2023-05-19T00:15:32.185Z,76
2023-05-19T00:16:32.232Z,76
2023-05-19T00:17:32.179Z,76
2023-05-19T00:18:32.195Z,76
2023-05-19T00:19:32.212Z,76
2023-05-19T00:20:32.346Z,76
2023-05-19T00:21:32.214Z,76
2023-05-19T00:22:32.168Z,76
2023-05-19T00:23:32.145Z,76
2023-05-19T00:24:32.168Z,76
2023-05-19T00:25:32.141Z,76
2023-05-19T00:26:32.173Z,76
2023-05-19T00:27:32.148Z,76
2023-05-19T00:28:32.163Z,76
2023-05-19T00:29:32.202Z,76
2023-05-19T00:30:32.436Z,76
2023-05-19T00:31:32.159Z,76
2023-05-19T00:32:32.246Z,76
2023-05-19T00:33:32.192Z,76
2023-05-19T00:34:32.202Z,76
2023-05-19T00:35:32.153Z,76
2023-05-19T00:36:32.234Z,76
2023-05-19T00:37:32.181Z,76
2023-05-19T00:38:32.205Z,76
2023-05-19T00:39:32.169Z,76
2023-05-19T00:40:32.431Z,76
2023-05-19T00:41:32.150Z,76
2023-05-19T00:42:32.161Z,76
2023-05-19T00:43:32.153Z,76
2023-05-19T00:44:32.169Z,77
2023-05-19T00:45:32.148Z,77
2023-05-19T00:46:32.222Z,77
2023-05-19T00:47:32.208Z,77
2023-05-19T00:48:32.150Z,77
2023-05-19T00:49:32.210Z,77
2023-05-19T00:50:32.391Z,77
2023-05-19T00:51:32.201Z,77
2023-05-19T00:52:32.177Z,77
2023-05-19T00:53:32.152Z,78
2023-05-19T00:54:32.181Z,78
2023-05-19T00:55:32.173Z,78
2023-05-19T00:56:32.141Z,78
2023-05-19T00:57:32.253Z,78
2023-05-19T00:58:32.188Z,78
2023-05-19T00:59:32.140Z,78
2023-05-19T01:00:32.503Z,78
2023-05-19T01:01:32.320Z,78
2023-05-19T01:02:32.207Z,78
2023-05-19T01:03:32.321Z,78
2023-05-19T01:04:32.179Z,78
2023-05-19T01:05:32.178Z,78
2023-05-19T01:06:32.168Z,79
2023-05-19T01:07:32.149Z,79
2023-05-19T01:08:32.160Z,79
2023-05-19T01:09:32.155Z,79
2023-05-19T01:10:32.379Z,79
2023-05-19T01:11:32.146Z,79
2023-05-19T01:12:32.177Z,79
2023-05-19T01:13:32.216Z,79
2023-05-19T01:14:32.182Z,79
2023-05-19T01:15:32.204Z,79
2023-05-19T01:16:32.357Z,79
2023-05-19T01:17:32.160Z,80
2023-05-19T01:18:32.135Z,80
2023-05-19T01:19:32.187Z,80
2023-05-19T01:20:32.543Z,80
2023-05-19T01:21:32.168Z,80
2023-05-19T01:22:32.188Z,80
2023-05-19T01:23:32.145Z,80
2023-05-19T01:24:32.147Z,81
2023-05-19T01:25:32.125Z,81
2023-05-19T01:26:32.143Z,81
2023-05-19T01:27:32.187Z,81
2023-05-19T01:28:32.182Z,81
2023-05-19T01:29:32.133Z,81
2023-05-19T01:30:32.571Z,81
2023-05-19T01:31:32.219Z,81
2023-05-19T01:32:32.187Z,81
2023-05-19T01:33:32.184Z,81
2023-05-19T01:34:32.125Z,81
2023-05-19T01:35:32.163Z,81
2023-05-19T01:36:32.168Z,81
2023-05-19T01:37:32.138Z,82
2023-05-19T01:38:32.133Z,82
2023-05-19T01:39:32.213Z,82
2023-05-19T01:40:32.586Z,82
2023-05-19T01:41:32.325Z,82
2023-05-19T01:42:32.329Z,82
2023-05-19T01:43:32.265Z,82
2023-05-19T01:44:32.278Z,82
2023-05-19T01:45:32.305Z,82
2023-05-19T01:46:32.345Z,82
2023-05-19T01:47:32.334Z,83
2023-05-19T01:48:32.303Z,83
2023-05-19T01:49:32.262Z,83
2023-05-19T01:50:32.715Z,83
2023-05-19T01:51:32.547Z,83
2023-05-19T01:52:32.313Z,83
2023-05-19T01:53:32.360Z,83
2023-05-19T01:54:32.259Z,83
2023-05-19T01:55:32.268Z,83
2023-05-19T01:56:32.304Z,83
2023-05-19T01:57:32.361Z,84
2023-05-19T01:58:32.170Z,84
2023-05-19T01:59:32.188Z,84
2023-05-19T02:00:32.416Z,84
2023-05-19T02:01:32.225Z,84
2023-05-19T02:02:32.222Z,84
2023-05-19T02:03:32.205Z,84
2023-05-19T02:04:32.237Z,84
2023-05-19T02:05:32.196Z,84
2023-05-19T02:06:32.197Z,84
2023-05-19T02:07:32.177Z,84
2023-05-19T02:08:32.152Z,84
2023-05-19T02:09:32.141Z,84
2023-05-19T02:10:32.419Z,84
2023-05-19T02:11:32.196Z,84
2023-05-19T02:12:32.215Z,84
2023-05-19T02:13:32.205Z,84
2023-05-19T02:14:32.144Z,84
2023-05-19T02:15:32.143Z,84
2023-05-19T02:16:32.186Z,84
2023-05-19T02:17:32.248Z,84
2023-05-19T02:18:32.171Z,84
2023-05-19T02:19:32.225Z,84
2023-05-19T02:20:32.450Z,85
2023-05-19T02:21:32.257Z,85
2023-05-19T02:22:32.142Z,85
2023-05-19T02:23:32.143Z,85
2023-05-19T02:24:32.156Z,85
2023-05-19T02:25:32.245Z,85
2023-05-19T02:26:32.158Z,85
2023-05-19T02:27:32.172Z,85
2023-05-19T02:28:32.158Z,85
2023-05-19T02:29:32.143Z,85
2023-05-19T02:30:32.507Z,85
2023-05-19T02:31:32.227Z,85
2023-05-19T02:32:32.197Z,85
2023-05-19T02:33:32.119Z,85
2023-05-19T02:34:32.195Z,85
2023-05-19T02:35:32.150Z,85
2023-05-19T02:36:32.175Z,85
2023-05-19T02:37:32.141Z,85
2023-05-19T02:38:32.269Z,85
2023-05-19T02:39:32.157Z,85
2023-05-19T02:40:32.368Z,85
2023-05-19T02:41:32.181Z,85
2023-05-19T02:42:32.172Z,85
2023-05-19T02:43:32.205Z,85
2023-05-19T02:44:32.133Z,85
2023-05-19T02:45:32.121Z,85
2023-05-19T02:46:32.208Z,85
2023-05-19T02:47:33.185Z,85
2023-05-19T02:48:32.112Z,85
2023-05-19T02:49:32.137Z,86
2023-05-19T02:50:32.381Z,86
2023-05-19T02:51:32.168Z,86
2023-05-19T02:52:32.142Z,86
2023-05-19T02:53:32.165Z,86
2023-05-19T02:54:32.168Z,86
2023-05-19T02:55:32.165Z,86
2023-05-19T02:56:32.159Z,86
2023-05-19T02:57:32.143Z,86
2023-05-19T02:58:32.147Z,86
2023-05-19T02:59:32.174Z,86
2023-05-19T03:00:32.535Z,86
2023-05-19T03:01:32.232Z,86
2023-05-19T03:02:32.265Z,86
2023-05-19T03:03:32.223Z,86
2023-05-19T03:04:32.133Z,86
2023-05-19T03:05:32.164Z,86
2023-05-19T03:06:32.175Z,86
2023-05-19T03:07:32.166Z,86
2023-05-19T03:08:32.156Z,86
2023-05-19T03:09:32.130Z,86
2023-05-19T03:10:32.462Z,86
2023-05-19T03:11:32.160Z,86
2023-05-19T03:12:32.157Z,86
2023-05-19T03:13:32.294Z,86
2023-05-19T03:14:32.211Z,86
2023-05-19T03:15:32.312Z,86
2023-05-19T03:16:32.177Z,86
2023-05-19T03:17:32.175Z,86
2023-05-19T03:18:32.166Z,86
2023-05-19T03:19:32.184Z,86
2023-05-19T03:20:32.438Z,86
2023-05-19T03:21:32.278Z,86
2023-05-19T03:22:32.188Z,86
2023-05-19T03:23:32.207Z,86
2023-05-19T03:24:32.175Z,86
2023-05-19T03:25:32.274Z,86
2023-05-19T03:26:32.176Z,86
2023-05-19T03:27:32.141Z,86
2023-05-19T03:28:32.320Z,86
2023-05-19T03:29:32.264Z,86
2023-05-19T03:30:32.580Z,86
2023-05-19T03:31:32.216Z,86
2023-05-19T03:32:32.382Z,86
2023-05-19T03:33:32.264Z,86
2023-05-19T03:34:32.236Z,86
2023-05-19T03:35:32.141Z,86
2023-05-19T03:36:32.313Z,86
2023-05-19T03:37:32.122Z,86
2023-05-19T03:38:32.175Z,85
2023-05-19T03:39:32.230Z,85
2023-05-19T03:40:32.554Z,85
2023-05-19T03:41:32.258Z,85
2023-05-19T03:42:32.269Z,85
2023-05-19T03:43:32.262Z,85
2023-05-19T03:44:32.273Z,85
2023-05-19T03:45:32.367Z,85
2023-05-19T03:46:32.318Z,85
2023-05-19T03:47:32.444Z,85
2023-05-19T03:48:32.117Z,85
2023-05-19T03:49:32.281Z,85
2023-05-19T03:50:32.348Z,85
2023-05-19T03:51:32.388Z,84
2023-05-19T03:52:32.344Z,84
2023-05-19T03:53:32.206Z,84
2023-05-19T03:54:32.131Z,84
2023-05-19T03:55:32.153Z,84
2023-05-19T03:56:32.147Z,84
2023-05-19T03:57:32.171Z,84
2023-05-19T03:58:32.176Z,84
2023-05-19T03:59:32.176Z,84
2023-05-19T04:00:32.518Z,84
2023-05-19T04:01:32.160Z,83
2023-05-19T04:02:32.262Z,83
2023-05-19T04:03:32.208Z,83
2023-05-19T04:04:32.196Z,83
2023-05-19T04:05:32.145Z,83
2023-05-19T04:06:32.161Z,83
2023-05-19T04:07:32.192Z,83
2023-05-19T04:08:32.152Z,83
2023-05-19T04:09:32.198Z,83
2023-05-19T04:10:32.490Z,83
2023-05-19T04:11:32.152Z,82
2023-05-19T04:12:32.150Z,82
2023-05-19T04:13:32.138Z,82
2023-05-19T04:14:32.150Z,82
2023-05-19T04:15:32.229Z,82
2023-05-19T04:16:32.194Z,81
2023-05-19T04:17:32.205Z,81
2023-05-19T04:18:32.179Z,81
2023-05-19T04:19:32.246Z,81
2023-05-19T04:20:33.213Z,81
2023-05-19T04:21:47.031Z,81
2023-05-19T04:22:51.025Z,80
2023-05-19T04:23:54.995Z,80
2023-05-19T04:24:59.014Z,80
2023-05-19T04:26:02.993Z,80
2023-05-19T04:27:07.033Z,80
2023-05-19T04:28:11.018Z,80
2023-05-19T04:29:15.015Z,79
2023-05-19T04:30:18.942Z,79
2023-05-19T04:31:23.083Z,79
2023-05-19T04:32:27.057Z,79
2023-05-19T04:33:31.003Z,79
2023-05-19T04:34:32.203Z,79
2023-05-19T04:35:32.139Z,79
2023-05-19T04:36:32.147Z,79
2023-05-19T04:37:32.426Z,78
2023-05-19T04:38:32.240Z,78
2023-05-19T04:39:32.137Z,78
2023-05-19T04:40:32.468Z,77
2023-05-19T04:41:32.191Z,77
2023-05-19T04:42:32.155Z,77
2023-05-19T04:43:32.159Z,77
2023-05-19T04:44:32.143Z,77
2023-05-19T04:45:32.135Z,77
2023-05-19T04:46:32.227Z,76
2023-05-19T04:47:32.163Z,76
2023-05-19T04:48:32.150Z,76
2023-05-19T04:49:32.184Z,76
2023-05-19T04:50:32.363Z,75
2023-05-19T04:51:32.153Z,75
2023-05-19T04:52:32.160Z,75
2023-05-19T04:53:32.169Z,75
2023-05-19T04:54:32.151Z,75
2023-05-19T04:55:32.118Z,75
2023-05-19T04:56:32.128Z,75
2023-05-19T04:57:32.168Z,75
2023-05-19T04:58:32.143Z,75
2023-05-19T04:59:32.139Z,74
2023-05-19T05:00:32.332Z,74
2023-05-19T05:01:32.240Z,74
2023-05-19T05:02:32.235Z,74
2023-05-19T05:03:32.248Z,74
2023-05-19T05:04:32.137Z,74
2023-05-19T05:05:32.158Z,73
2023-05-19T05:06:32.488Z,73
2023-05-19T05:07:32.631Z,72
2023-05-19T05:08:32.118Z,71
2023-05-19T05:09:32.127Z,71
2023-05-19T05:10:32.322Z,70
2023-05-19T05:11:32.127Z,69
2023-05-19T05:12:32.120Z,68
2023-05-19T05:13:32.122Z,68
2023-05-19T05:14:32.146Z,68
2023-05-19T05:15:32.139Z,69
2023-05-19T05:16:32.176Z,69
2023-05-19T05:17:32.173Z,69
2023-05-19T05:18:32.132Z,69
2023-05-19T05:19:32.181Z,69
2023-05-19T05:20:32.334Z,69
2023-05-19T05:21:32.165Z,69
2023-05-19T05:22:32.179Z,68
2023-05-19T05:23:32.114Z,68
2023-05-19T05:24:32.146Z,68
2023-05-19T05:25:32.490Z,67
2023-05-19T05:26:32.108Z,66
2023-05-19T05:27:32.122Z,65
2023-05-19T05:28:32.148Z,65
2023-05-19T05:29:32.122Z,65
2023-05-19T05:30:32.141Z,65
2023-05-19T05:31:32.156Z,64
2023-05-19T05:32:32.271Z,63
2023-05-19T05:33:32.172Z,63
2023-05-19T05:34:32.117Z,62
2023-05-19T05:35:32.315Z,62
2023-05-19T05:36:32.124Z,63
2023-05-19T05:37:32.135Z,63
2023-05-19T05:38:32.172Z,63
2023-05-19T05:39:32.200Z,63
2023-05-19T05:40:32.101Z,62
2023-05-19T05:41:32.102Z,62
2023-05-19T05:42:32.120Z,62
2023-05-19T05:43:32.215Z,61
2023-05-19T05:44:32.126Z,60
2023-05-19T05:45:32.308Z,60
2023-05-19T05:46:32.375Z,59
2023-05-19T05:47:32.165Z,60
2023-05-19T05:48:32.155Z,59
2023-05-19T05:49:32.149Z,59
2023-05-19T05:50:32.142Z,60
2023-05-19T05:51:32.155Z,58
2023-05-19T05:52:32.139Z,58
2023-05-19T05:53:32.179Z,58
2023-05-19T05:54:32.130Z,60
2023-05-19T05:55:32.328Z,58
2023-05-19T05:56:32.158Z,58
2023-05-19T05:57:32.148Z,56
2023-05-19T05:58:32.146Z,57
2023-05-19T05:59:32.173Z,57
2023-05-19T06:00:32.528Z,58
2023-05-19T06:01:33.680Z,57
2023-05-19T06:02:32.240Z,57
2023-05-19T06:03:32.242Z,56
2023-05-19T06:04:32.161Z,56
2023-05-19T06:05:32.173Z,56
2023-05-19T06:06:32.143Z,55
2023-05-19T06:07:32.163Z,55
2023-05-19T06:08:32.154Z,54
2023-05-19T06:09:32.130Z,54
2023-05-19T06:10:32.661Z,54
2023-05-19T06:11:32.153Z,54
2023-05-19T06:12:32.132Z,53
2023-05-19T06:13:32.108Z,53
2023-05-19T06:14:32.135Z,53
2023-05-19T06:15:32.158Z,51
2023-05-19T06:16:32.239Z,52
2023-05-19T06:17:32.181Z,52
2023-05-19T06:18:32.156Z,52
2023-05-19T06:19:32.190Z,49
2023-05-19T06:20:32.527Z,49
2023-05-19T06:21:32.225Z,48
2023-05-19T06:22:32.131Z,49
2023-05-19T06:23:32.142Z,48
2023-05-19T06:24:32.168Z,49
2023-05-19T06:25:32.284Z,48
2023-05-19T06:26:32.148Z,47
2023-05-19T06:27:34.054Z,46
2023-05-19T06:28:32.138Z,47
2023-05-19T06:29:32.128Z,47
2023-05-19T06:30:32.269Z,47
2023-05-19T06:31:32.170Z,47
2023-05-19T06:32:32.214Z,47
2023-05-19T06:33:32.144Z,46
2023-05-19T06:34:32.131Z,46
2023-05-19T06:35:32.110Z,46
2023-05-19T06:36:32.189Z,47
2023-05-19T06:37:32.095Z,47
2023-05-19T06:38:32.117Z,47
2023-05-19T06:39:32.136Z,47
2023-05-19T06:40:32.516Z,46
2023-05-19T06:41:32.266Z,47
2023-05-19T06:42:32.124Z,45
2023-05-19T06:43:32.130Z,45
2023-05-19T06:44:32.145Z,45
2023-05-19T06:45:32.181Z,44
2023-05-19T06:46:32.191Z,44
2023-05-19T06:47:32.193Z,44
2023-05-19T06:48:32.157Z,44
2023-05-19T06:49:32.184Z,42
2023-05-19T06:50:32.265Z,42
2023-05-19T06:51:32.408Z,43
2023-05-19T06:52:32.226Z,42
2023-05-19T06:53:32.142Z,43
2023-05-19T06:54:32.117Z,42
2023-05-19T06:55:32.119Z,42
2023-05-19T06:56:32.178Z,43
2023-05-19T06:57:32.170Z,43
2023-05-19T06:58:32.138Z,44
2023-05-19T06:59:32.118Z,43
2023-05-19T07:00:32.368Z,42
2023-05-19T07:01:32.188Z,42
2023-05-19T07:02:32.293Z,43
2023-05-19T07:03:32.225Z,42
2023-05-19T07:04:32.129Z,42
2023-05-19T07:05:32.098Z,41
2023-05-19T07:06:32.140Z,41
2023-05-19T07:07:32.121Z,41
2023-05-19T07:08:32.171Z,42
2023-05-19T07:09:32.181Z,42
2023-05-19T07:10:32.260Z,42
2023-05-19T07:11:32.119Z,42
2023-05-19T07:12:32.187Z,42
2023-05-19T07:13:32.228Z,42
2023-05-19T07:14:32.127Z,42
2023-05-19T07:15:32.122Z,42
2023-05-19T07:16:32.250Z,41
2023-05-19T07:17:32.552Z,41
2023-05-19T07:18:32.168Z,40
2023-05-19T07:19:32.211Z,40
2023-05-19T07:20:32.325Z,39
2023-05-19T07:21:32.131Z,39
2023-05-19T07:22:32.133Z,39
2023-05-19T07:23:32.129Z,39
2023-05-19T07:24:32.124Z,38
2023-05-19T07:25:32.167Z,39
2023-05-19T07:26:32.128Z,39
2023-05-19T07:27:32.094Z,38
2023-05-19T07:28:32.135Z,37
2023-05-19T07:29:32.142Z,38
2023-05-19T07:30:32.414Z,38
2023-05-19T07:31:32.105Z,38
2023-05-19T07:32:32.182Z,39
2023-05-19T07:33:32.137Z,39
2023-05-19T07:34:32.190Z,39
2023-05-19T07:35:32.129Z,40
2023-05-19T07:36:32.186Z,39
2023-05-19T07:37:32.434Z,38
2023-05-19T07:38:32.226Z,38
2023-05-19T07:39:32.135Z,38
2023-05-19T07:40:32.430Z,39
2023-05-19T07:41:33.175Z,39
2023-05-19T07:42:32.164Z,39
2023-05-19T07:43:32.119Z,38
2023-05-19T07:44:32.136Z,38
2023-05-19T07:45:32.153Z,38
2023-05-19T07:46:32.196Z,37
2023-05-19T07:47:32.143Z,37
2023-05-19T07:48:32.120Z,37
2023-05-19T07:49:32.126Z,37
2023-05-19T07:50:32.353Z,36
2023-05-19T07:51:32.110Z,36
2023-05-19T07:52:32.186Z,37
2023-05-19T07:53:32.139Z,37
2023-05-19T07:54:32.121Z,37
2023-05-19T07:55:32.105Z,36
2023-05-19T07:56:32.219Z,37
2023-05-19T07:57:32.128Z,37
2023-05-19T07:58:32.180Z,38
2023-05-19T07:59:32.122Z,37
2023-05-19T08:00:32.272Z,36
2023-05-19T08:01:32.150Z,36
2023-05-19T08:02:32.339Z,36
2023-05-19T08:03:32.367Z,36
2023-05-19T08:04:32.136Z,36
2023-05-19T08:05:32.116Z,36
2023-05-19T08:06:32.138Z,36
2023-05-19T08:07:32.092Z,35
2023-05-19T08:08:32.269Z,36
2023-05-19T08:09:32.117Z,36
2023-05-19T08:10:32.282Z,35
2023-05-19T08:11:32.162Z,35
2023-05-19T08:12:32.172Z,36
2023-05-19T08:13:32.133Z,35
2023-05-19T08:14:32.087Z,35
2023-05-19T08:15:32.828Z,35
2023-05-19T08:16:32.250Z,36
2023-05-19T08:17:32.169Z,35
2023-05-19T08:18:32.146Z,34
2023-05-19T08:19:32.147Z,35
2023-05-19T08:20:32.386Z,35
2023-05-19T08:21:32.123Z,35
2023-05-19T08:22:32.196Z,36
2023-05-19T08:23:32.129Z,36
2023-05-19T08:24:32.181Z,36
2023-05-19T08:25:32.094Z,36
2023-05-19T08:26:32.140Z,36
2023-05-19T08:27:32.135Z,35
2023-05-19T08:28:32.123Z,35
2023-05-19T08:29:32.118Z,36
2023-05-19T08:30:32.296Z,36
2023-05-19T08:31:32.216Z,36
2023-05-19T08:32:32.142Z,36
2023-05-19T08:33:32.122Z,36
2023-05-19T08:34:32.120Z,36
2023-05-19T08:35:32.135Z,36
2023-05-19T08:36:32.213Z,35
2023-05-19T08:37:34.128Z,35
2023-05-19T08:38:32.109Z,35
2023-05-19T08:39:32.104Z,35
2023-05-19T08:40:32.409Z,35
2023-05-19T08:41:32.110Z,35
2023-05-19T08:42:32.176Z,35
2023-05-19T08:43:32.088Z,35
2023-05-19T08:44:32.118Z,35
2023-05-19T08:45:32.293Z,35
2023-05-19T08:46:32.112Z,36
2023-05-19T08:47:32.259Z,36
2023-05-19T08:48:32.090Z,34
2023-05-19T08:49:32.139Z,34
2023-05-19T08:50:32.488Z,35
2023-05-19T08:51:32.148Z,34
2023-05-19T08:52:32.248Z,35
2023-05-19T08:53:34.386Z,34
2023-05-19T08:54:32.112Z,34
2023-05-19T08:55:32.379Z,35
2023-05-19T08:56:32.149Z,35
2023-05-19T08:57:32.119Z,36
2023-05-19T08:58:32.109Z,36
2023-05-19T08:59:32.138Z,35
2023-05-19T09:00:32.487Z,34
2023-05-19T09:01:32.146Z,35
2023-05-19T09:02:32.137Z,35
2023-05-19T09:03:32.226Z,35
2023-05-19T09:04:32.167Z,35
2023-05-19T09:05:32.415Z,34
2023-05-19T09:06:32.104Z,33
2023-05-19T09:07:32.094Z,35
2023-05-19T09:08:32.347Z,35
2023-05-19T09:09:32.135Z,35
2023-05-19T09:10:32.120Z,35
2023-05-19T09:11:32.185Z,35
2023-05-19T09:12:32.109Z,35
2023-05-19T09:13:32.132Z,35
2023-05-19T09:14:32.083Z,35
2023-05-19T09:15:32.260Z,34
2023-05-19T09:16:32.138Z,34
2023-05-19T09:17:32.121Z,34
2023-05-19T09:18:32.135Z,35
2023-05-19T09:19:32.362Z,35
2023-05-19T09:20:32.125Z,35
2023-05-19T09:21:32.124Z,35
2023-05-19T09:22:32.122Z,35
2023-05-19T09:23:32.114Z,35
2023-05-19T09:24:32.158Z,35
2023-05-19T09:25:32.368Z,34
2023-05-19T09:26:32.092Z,34
2023-05-19T09:27:32.120Z,34
2023-05-19T09:28:32.135Z,34
2023-05-19T09:29:32.108Z,34
2023-05-19T09:30:32.200Z,34
2023-05-19T09:31:32.134Z,34
2023-05-19T09:32:32.173Z,34
2023-05-19T09:33:32.130Z,34
2023-05-19T09:34:32.097Z,34
2023-05-19T09:35:32.394Z,34
2023-05-19T09:36:32.116Z,34
2023-05-19T09:37:32.186Z,34
2023-05-19T09:38:32.071Z,34
2023-05-19T09:39:32.114Z,35
2023-05-19T09:40:32.166Z,36
2023-05-19T09:41:32.260Z,36
2023-05-19T09:42:32.105Z,36
2023-05-19T09:43:32.162Z,36
2023-05-19T09:44:32.097Z,35
2023-05-19T09:45:32.289Z,35
2023-05-19T09:46:32.176Z,35
2023-05-19T09:47:32.110Z,35
2023-05-19T09:48:32.093Z,35
2023-05-19T09:49:32.125Z,35
2023-05-19T09:50:32.093Z,36
2023-05-19T09:51:32.116Z,36
2023-05-19T09:52:32.174Z,37
2023-05-19T09:53:32.133Z,36
2023-05-19T09:54:32.180Z,36
2023-05-19T09:55:32.256Z,37
2023-05-19T09:56:32.166Z,36
2023-05-19T09:57:32.097Z,36
2023-05-19T09:58:32.036Z,36
2023-05-19T09:59:33.786Z,36
2023-05-19T10:00:32.182Z,36
2023-05-19T10:01:32.119Z,35
2023-05-19T10:02:32.167Z,35
2023-05-19T10:03:32.104Z,35
2023-05-19T10:04:32.252Z,34
2023-05-19T10:05:32.397Z,35
2023-05-19T10:06:32.108Z,34
2023-05-19T10:07:32.142Z,35
2023-05-19T10:08:32.093Z,35
2023-05-19T10:09:32.165Z,35
2023-05-19T10:10:32.089Z,35
2023-05-19T10:11:32.168Z,34
2023-05-19T10:12:32.122Z,35
2023-05-19T10:13:32.126Z,35
2023-05-19T10:14:32.126Z,35
2023-05-19T10:15:33.167Z,35
2023-05-19T10:16:32.209Z,35
2023-05-19T10:17:32.179Z,35
2023-05-19T10:18:32.093Z,35
2023-05-19T10:19:32.243Z,35
2023-05-19T10:20:32.296Z,35
2023-05-19T10:21:32.130Z,35
2023-05-19T10:22:32.117Z,35
2023-05-19T10:23:32.090Z,35
2023-05-19T10:24:32.128Z,35
2023-05-19T10:25:32.306Z,35
2023-05-19T10:26:32.154Z,34
2023-05-19T10:27:32.100Z,34
2023-05-19T10:28:32.121Z,35
2023-05-19T10:29:32.094Z,36
2023-05-19T10:30:32.105Z,35
2023-05-19T10:31:32.201Z,35
2023-05-19T10:32:32.200Z,35
2023-05-19T10:33:32.120Z,35
2023-05-19T10:34:32.122Z,34
2023-05-19T10:35:32.535Z,34
2023-05-19T10:36:32.124Z,34
2023-05-19T10:37:32.190Z,33
2023-05-19T10:38:32.122Z,34
2023-05-19T10:39:32.119Z,34
2023-05-19T10:40:32.134Z,34
2023-05-19T10:41:32.093Z,35
2023-05-19T10:42:32.159Z,36
2023-05-19T10:43:32.124Z,35
2023-05-19T10:44:32.141Z,35
2023-05-19T10:45:32.308Z,35
2023-05-19T10:46:32.168Z,35
2023-05-19T10:47:32.136Z,34
2023-05-19T10:48:32.115Z,34
2023-05-19T10:49:32.115Z,34
2023-05-19T10:50:32.100Z,35
2023-05-19T10:51:32.123Z,34
2023-05-19T10:52:32.109Z,35
2023-05-19T10:53:32.109Z,33
2023-05-19T10:54:32.099Z,34
2023-05-19T10:55:32.255Z,34
2023-05-19T10:56:32.111Z,34
2023-05-19T10:57:32.204Z,34
2023-05-19T10:58:32.073Z,34
2023-05-19T10:59:32.125Z,34
2023-05-19T11:00:32.169Z,34
2023-05-19T11:01:32.182Z,33
2023-05-19T11:02:32.170Z,33
2023-05-19T11:03:32.121Z,33
2023-05-19T11:04:32.152Z,34
2023-05-19T11:05:32.360Z,35
2023-05-19T11:06:32.129Z,35
2023-05-19T11:07:32.113Z,32
2023-05-19T11:08:32.115Z,34
2023-05-19T11:09:39.916Z,33
2023-05-19T11:10:32.115Z,34
2023-05-19T11:11:33.179Z,32
2023-05-19T11:12:32.085Z,33
2023-05-19T11:13:32.091Z,34
2023-05-19T11:14:32.086Z,33
2023-05-19T11:15:32.442Z,33
2023-05-19T11:16:32.422Z,33
2023-05-19T11:18:32.100Z,33
2023-05-19T11:19:32.212Z,33
2023-05-19T11:20:32.111Z,33
2023-05-19T11:21:32.126Z,33
2023-05-19T11:22:32.158Z,33
2023-05-19T11:23:33.411Z,34
2023-05-19T11:24:32.086Z,33
2023-05-19T11:25:32.429Z,33
2023-05-19T11:26:32.111Z,34
2023-05-19T11:27:32.123Z,33
2023-05-19T11:28:32.088Z,33
2023-05-19T11:29:33.522Z,32
2023-05-19T11:30:32.086Z,33
2023-05-19T11:31:32.163Z,33
2023-05-19T11:32:32.162Z,34
2023-05-19T11:33:32.121Z,33
2023-05-19T11:34:32.079Z,33
2023-05-19T11:35:33.819Z,34
2023-05-19T11:36:32.092Z,33
2023-05-19T11:37:32.130Z,34
2023-05-19T11:38:32.135Z,33
2023-05-19T11:39:32.091Z,33
2023-05-19T11:40:32.086Z,32
2023-05-19T11:41:32.178Z,32
2023-05-19T11:42:32.077Z,33
2023-05-19T11:43:32.104Z,32
2023-05-19T11:44:32.124Z,32
2023-05-19T11:45:32.434Z,33
2023-05-19T11:46:32.204Z,33
2023-05-19T11:47:42.113Z,33
2023-05-19T11:48:32.168Z,34
2023-05-19T11:49:32.101Z,34
2023-05-19T11:50:32.119Z,34
2023-05-19T11:51:32.071Z,33
2023-05-19T11:52:32.112Z,33
2023-05-19T11:53:33.365Z,33
2023-05-19T11:54:32.086Z,33
2023-05-19T11:55:32.058Z,33
2023-05-19T11:56:32.124Z,33
2023-05-19T11:57:32.116Z,32
2023-05-19T11:58:32.073Z,31
2023-05-19T11:59:33.518Z,32
2023-05-19T12:00:32.092Z,31
2023-05-19T12:01:32.141Z,32
2023-05-19T12:02:32.161Z,32
2023-05-19T12:03:32.205Z,32
2023-05-19T12:04:32.254Z,32
2023-05-19T12:05:34.511Z,32
2023-05-19T12:06:32.162Z,32
2023-05-19T12:07:32.091Z,32
2023-05-19T12:08:32.098Z,32
2023-05-19T12:09:32.232Z,32
2023-05-19T12:10:32.104Z,32
2023-05-19T12:11:32.147Z,32
2023-05-19T12:12:32.098Z,32
2023-05-19T12:13:32.084Z,32
2023-05-19T12:14:32.120Z,32
2023-05-19T12:15:32.230Z,32
2023-05-19T12:16:33.455Z,31
2023-05-19T12:17:32.188Z,31
2023-05-19T12:18:32.119Z,31
2023-05-19T12:19:32.141Z,31
2023-05-19T12:20:32.146Z,31
2023-05-19T12:21:34.205Z,32
2023-05-19T12:22:32.128Z,31
2023-05-19T12:23:33.117Z,31
2023-05-19T12:24:42.247Z,32
2023-05-19T12:25:46.293Z,32
2023-05-19T12:26:50.362Z,31
2023-05-19T12:27:55.999Z,31
2023-05-19T12:28:58.270Z,31
2023-05-19T12:30:02.246Z,31
2023-05-19T12:31:06.238Z,31
2023-05-19T12:32:10.355Z,31
2023-05-19T12:33:14.266Z,31
2023-05-19T12:34:18.266Z,31
2023-05-19T12:35:22.194Z,32
2023-05-19T12:36:26.272Z,31
2023-05-19T12:37:30.257Z,31
2023-05-19T12:38:32.093Z,31
2023-05-19T12:39:32.092Z,31
2023-05-19T12:40:32.223Z,31
2023-05-19T12:41:32.121Z,31
2023-05-19T12:42:32.089Z,31
2023-05-19T12:43:32.112Z,31
2023-05-19T12:44:32.064Z,31
2023-05-19T12:45:32.080Z,32
2023-05-19T12:46:32.299Z,32
2023-05-19T12:47:32.073Z,32
2023-05-19T12:48:32.067Z,32
2023-05-19T12:49:32.130Z,32
2023-05-19T12:50:32.387Z,32
2023-05-19T12:51:32.061Z,32
2023-05-19T12:52:32.081Z,31
2023-05-19T12:53:32.150Z,31
2023-05-19T12:54:32.120Z,31
2023-05-19T12:55:32.106Z,31
2023-05-19T12:56:32.163Z,32
2023-05-19T12:57:32.156Z,32
2023-05-19T12:58:32.097Z,32
2023-05-19T13:00:32.301Z,32
2023-05-19T13:01:32.160Z,32
2023-05-19T13:02:32.230Z,32
2023-05-19T13:03:32.123Z,32
2023-05-19T13:04:32.093Z,33
2023-05-19T13:05:32.087Z,32
2023-05-19T13:06:32.095Z,32
2023-05-19T13:07:32.104Z,32
2023-05-19T13:08:32.173Z,32
2023-05-19T13:09:32.092Z,32
2023-05-19T13:10:32.329Z,32
2023-05-19T13:11:32.098Z,31
2023-05-19T13:12:32.109Z,31
2023-05-19T13:13:32.158Z,32
2023-05-19T13:14:32.092Z,32
2023-05-19T13:15:32.110Z,32
2023-05-19T13:16:32.119Z,32
2023-05-19T13:17:32.128Z,32
2023-05-19T13:18:32.125Z,32
2023-05-19T13:19:32.152Z,32
2023-05-19T13:20:32.317Z,32
2023-05-19T13:21:32.200Z,32
2023-05-19T13:22:32.116Z,32
2023-05-19T13:23:32.146Z,32
2023-05-19T13:24:32.114Z,33
2023-05-19T13:25:32.119Z,33
2023-05-19T13:26:32.096Z,33
2023-05-19T13:27:32.048Z,33
2023-05-19T13:28:32.066Z,33
2023-05-19T13:29:32.112Z,32
2023-05-19T13:30:32.441Z,32
2023-05-19T13:31:32.220Z,33
2023-05-19T13:32:32.163Z,33
2023-05-19T13:33:32.149Z,33
2023-05-19T13:34:32.099Z,33
2023-05-19T13:35:32.081Z,33
2023-05-19T13:36:32.162Z,33
2023-05-19T13:37:32.177Z,34
2023-05-19T13:38:32.102Z,33
2023-05-19T13:39:32.155Z,34
2023-05-19T13:40:32.355Z,33
2023-05-19T13:41:32.086Z,33
2023-05-19T13:42:32.084Z,33
2023-05-19T13:43:32.426Z,33
2023-05-19T13:44:32.054Z,33
2023-05-19T13:45:32.109Z,33
2023-05-19T13:46:44.126Z,34
2023-05-19T13:47:32.219Z,33
2023-05-19T13:48:32.127Z,34
2023-05-19T13:49:32.170Z,34
2023-05-19T13:50:32.116Z,34
2023-05-19T13:51:32.115Z,34
2023-05-19T13:52:32.426Z,35
2023-05-19T13:53:32.071Z,34
2023-05-19T13:54:32.126Z,35
2023-05-19T13:55:32.071Z,34
2023-05-19T13:56:32.118Z,34
2023-05-19T13:57:32.085Z,34
2023-05-19T13:58:32.093Z,34
2023-05-19T13:59:32.091Z,34
2023-05-19T14:00:32.333Z,34
2023-05-19T14:01:32.115Z,34
2023-05-19T14:02:32.250Z,34
2023-05-19T14:03:32.153Z,35
2023-05-19T14:04:32.089Z,35
2023-05-19T14:05:32.110Z,35
2023-05-19T14:06:32.067Z,35
2023-05-19T14:07:32.074Z,35
2023-05-19T14:08:32.055Z,35
2023-05-19T14:09:32.085Z,35
2023-05-19T14:10:32.190Z,35
2023-05-19T14:11:32.071Z,34
2023-05-19T14:12:41.633Z,35
2023-05-19T14:13:35.666Z,35
2023-05-19T14:14:32.089Z,34
2023-05-19T14:15:32.085Z,35
2023-05-19T14:16:32.081Z,35
2023-05-19T14:17:32.132Z,35
2023-05-19T14:18:32.068Z,35
2023-05-19T14:19:32.099Z,35